Lakedale, North Carolina
Current Conditions -  °F | °C
As of 8:16 PM on Sunday 23 Nov 2014 (Local Time) from KFAY Reporting Station
Overcast Overcast  
Wind Chill: 64°   Ceiling: 1100
Heat Index: 64°   Visibility: 9mi
Dew Point: 62°   Wind: 17mph
Humidity: 93%   Direction: 140°SE
Pressure: 29.86"   Gusts: 24mph
Location:  34.9828°N, 78.913°W
Report Text: KFAY 240116Z AUTO 14015G21KT 9SM FEW007 BKN011 OVC017 18/17 A2986 RMK AO2 RAE0057 P0000 T01780167
Loading
Personal Weather Stations






























Interactive Weather Map New forecast layout! Learn more

10-Day Weather Forecast

Advertisements
Track Severe Weather on mobile